Time;durP1;ratioP1;P1;durP2;ratioP2;P2;SDS_P1;SDS_P2;PMS_P1;PMS_P2;Temp;Humidity;BMP_temperature;BMP_pressure;BME280_temperature;BME280_humidity;BME280_pressure;Samples;Min_cycle;Max_cycle;Signal;HPM_P1;HPM_P2
2022/03/03 00:01:55;;;;;;;5.63;1.90;;;;;;;;;;5033027;28;20393;-62
2022/03/03 00:04:21;;;;;;;4.07;1.98;;;;;;;;;;5032230;28;20033;-62
2022/03/03 00:06:47;;;;;;;4.22;2.08;;;;;;;;;;5032136;28;20116;-62
2022/03/03 00:09:13;;;;;;;3.22;1.88;;;;;;;;;;5032122;28;20052;-62
2022/03/03 00:11:40;;;;;;;4.13;2.30;;;;;;;;;;5031817;28;20474;-62
2022/03/03 00:14:06;;;;;;;5.70;2.10;;;;;;;;;;5031739;28;20023;-62
2022/03/03 00:16:32;;;;;;;3.50;2.25;;;;;;;;;;5032261;28;20044;-62
2022/03/03 00:18:59;;;;;;;4.53;2.38;;;;;;;;;;5031763;28;20434;-62
2022/03/03 00:21:25;;;;;;;4.55;2.20;;;;;;;;;;5031872;28;20504;-62
2022/03/03 00:23:51;;;;;;;2.78;1.73;;;;;;;;;;5031883;28;20022;-62
2022/03/03 00:26:17;;;;;;;5.97;2.08;;;;;;;;;;5033780;28;20021;-62
2022/03/03 00:28:43;;;;;;;4.03;1.95;;;;;;;;;;5051559;28;20044;-62
2022/03/03 00:31:10;;;;;;;4.03;2.55;;;;;;;;;;5042141;28;20021;-62
2022/03/03 00:33:36;;;;;;;4.60;2.17;;;;;;;;;;5031945;28;20481;-62
2022/03/03 00:36:02;;;;;;;7.18;2.40;;;;;;;;;;5031785;28;20022;-62
2022/03/03 00:38:28;;;;;;;5.78;2.50;;;;;;;;;;5031959;28;20033;-62
2022/03/03 00:40:54;;;;;;;3.97;1.90;;;;;;;;;;5038775;28;20021;-62
2022/03/03 00:43:20;;;;;;;7.57;2.22;;;;;;;;;;5051299;28;20029;-62
2022/03/03 00:45:47;;;;;;;8.30;2.40;;;;;;;;;;5051745;28;20031;-62
2022/03/03 00:48:13;;;;;;;8.52;2.20;;;;;;;;;;5047518;28;20104;-62
2022/03/03 00:50:39;;;;;;;5.68;2.25;;;;;;;;;;5047230;28;20064;-62
2022/03/03 00:53:05;;;;;;;5.72;2.30;;;;;;;;;;5031413;28;20531;-62
2022/03/03 00:55:31;;;;;;;5.68;2.20;;;;;;;;;;5049451;28;20489;-62
2022/03/03 00:57:57;;;;;;;8.35;2.28;;;;;;;;;;5051325;28;20064;-62
2022/03/03 01:00:24;;;;;;;6.97;2.35;;;;;;;;;;5049829;28;20481;-62
2022/03/03 01:02:50;;;;;;;7.05;2.10;;;;;;;;;;5051367;28;20069;-62
2022/03/03 01:05:16;;;;;;;6.05;2.53;;;;;;;;;;5051463;28;20021;-62
2022/03/03 01:07:43;;;;;;;6.65;1.90;;;;;;;;;;5051823;28;20021;-62
2022/03/03 01:10:10;;;;;;;4.47;2.10;;;;;;;;;;5051198;28;20099;-62
2022/03/03 01:12:37;;;;;;;4.05;1.80;;;;;;;;;;5031461;28;20048;-62
2022/03/03 01:15:04;;;;;;;5.70;2.10;;;;;;;;;;5031474;28;20520;-62
2022/03/03 01:17:30;;;;;;;8.48;2.25;;;;;;;;;;5031612;28;20033;-62
2022/03/03 01:19:56;;;;;;;6.60;2.67;;;;;;;;;;5031373;28;20029;-62
2022/03/03 01:22:23;;;;;;;7.32;2.45;;;;;;;;;;5033373;28;20041;-62
2022/03/03 01:24:49;;;;;;;10.15;3.10;;;;;;;;;;5035114;28;20018;-62
2022/03/03 01:27:15;;;;;;;5.25;2.15;;;;;;;;;;5043943;28;20027;-62
2022/03/03 01:29:41;;;;;;;9.35;2.60;;;;;;;;;;5036562;28;20029;-62
2022/03/03 01:32:08;;;;;;;6.82;2.28;;;;;;;;;;5037649;28;20469;-62
2022/03/03 01:34:35;;;;;;;7.38;2.95;;;;;;;;;;5054921;28;20029;-62
2022/03/03 01:37:01;;;;;;;9.48;2.72;;;;;;;;;;5053910;28;20047;-62
2022/03/03 01:39:27;;;;;;;5.72;2.45;;;;;;;;;;5041917;28;20446;-62
2022/03/03 01:41:54;;;;;;;9.77;2.58;;;;;;;;;;5039230;28;20060;-62
2022/03/03 01:44:20;;;;;;;5.68;2.10;;;;;;;;;;5054349;28;20392;-62
2022/03/03 01:46:50;;;;;;;5.65;2.25;;;;;;;;;;5054656;28;20017;-62
2022/03/03 01:49:16;;;;;;;7.32;2.70;;;;;;;;;;5054395;28;20472;-62
2022/03/03 01:51:42;;;;;;;6.93;2.78;;;;;;;;;;5040788;28;20048;-62
2022/03/03 01:54:08;;;;;;;11.35;3.13;;;;;;;;;;5034230;28;20415;-62
2022/03/03 01:56:35;;;;;;;2.97;2.13;;;;;;;;;;5034235;28;20025;-62
2022/03/03 01:59:01;;;;;;;8.10;2.60;;;;;;;;;;5034294;28;20030;-62
2022/03/03 02:01:28;;;;;;;7.55;2.92;;;;;;;;;;5034317;28;20025;-62
2022/03/03 02:03:54;;;;;;;11.75;2.83;;;;;;;;;;5034433;28;20031;-62
2022/03/03 02:06:20;;;;;;;6.00;2.53;;;;;;;;;;5034056;28;20040;-62
2022/03/03 02:08:46;;;;;;;11.02;3.83;;;;;;;;;;5044396;28;20388;-62
2022/03/03 02:11:12;;;;;;;9.02;2.65;;;;;;;;;;5053146;28;20032;-62
2022/03/03 02:13:40;;;;;;;7.78;2.05;;;;;;;;;;5054185;28;20095;-62
2022/03/03 02:16:08;;;;;;;6.28;2.45;;;;;;;;;;5052302;28;20032;-62
2022/03/03 02:18:41;;;;;;;6.65;2.40;;;;;;;;;;5053749;28;20036;-62
2022/03/03 02:21:07;;;;;;;;;;;;;;;;;;5054178;28;20036;-62
2022/03/03 02:23:33;;;;;;;10.90;2.17;;;;;;;;;;5053850;28;20007;-62
2022/03/03 02:26:00;;;;;;;7.70;2.20;;;;;;;;;;5053640;28;20033;-62
2022/03/03 02:28:26;;;;;;;6.82;1.80;;;;;;;;;;5048388;28;20117;-62
2022/03/03 02:30:52;;;;;;;3.17;1.63;;;;;;;;;;5033990;28;20065;-62
2022/03/03 02:33:18;;;;;;;5.40;1.77;;;;;;;;;;5033660;28;20361;-62
2022/03/03 02:35:44;;;;;;;8.60;1.90;;;;;;;;;;5033852;28;20121;-62
2022/03/03 02:38:11;;;;;;;7.50;2.05;;;;;;;;;;5033425;28;20030;-62
2022/03/03 02:40:37;;;;;;;10.20;1.98;;;;;;;;;;5033431;28;20132;-62
2022/03/03 02:43:03;;;;;;;6.32;1.48;;;;;;;;;;5033502;28;20036;-62
2022/03/03 02:45:29;;;;;;;5.13;1.73;;;;;;;;;;5033504;28;20028;-62
2022/03/03 02:47:55;;;;;;;6.53;1.60;;;;;;;;;;5044310;28;20036;-62
2022/03/03 02:50:25;;;;;;;4.10;1.52;;;;;;;;;;5052912;28;20040;-62
2022/03/03 02:52:52;;;;;;;5.35;1.92;;;;;;;;;;5053502;28;20146;-62
2022/03/03 02:55:18;;;;;;;3.10;1.25;;;;;;;;;;5033427;28;20026;-62
2022/03/03 02:57:54;;;;;;;4.45;1.33;;;;;;;;;;5035396;28;20403;-62
2022/03/03 03:00:21;;;;;;;6.43;1.35;;;;;;;;;;5053060;28;20408;-62
2022/03/03 03:02:47;;;;;;;4.82;1.20;;;;;;;;;;5052463;28;20025;-62
2022/03/03 03:05:13;;;;;;;6.65;1.15;;;;;;;;;;5053007;28;20108;-62
2022/03/03 03:07:39;;;;;;;4.57;1.17;;;;;;;;;;5044332;28;20030;-62
2022/03/03 03:10:06;;;;;;;5.05;1.40;;;;;;;;;;5033072;28;20087;-62
2022/03/03 03:12:33;;;;;;;2.80;1.15;;;;;;;;;;5032989;28;20056;-62
2022/03/03 03:14:59;;;;;;;4.03;1.08;;;;;;;;;;5033169;28;20029;-62
2022/03/03 03:17:25;;;;;;;3.45;1.00;;;;;;;;;;5037297;28;20047;-62
2022/03/03 03:19:51;;;;;;;3.80;0.82;;;;;;;;;;5052957;28;20091;-62
2022/03/03 03:22:18;;;;;;;2.00;0.82;;;;;;;;;;5052131;28;20032;-62
2022/03/03 03:24:44;;;;;;;1.00;0.52;;;;;;;;;;5052154;28;20028;-62
2022/03/03 03:27:10;;;;;;;3.33;0.70;;;;;;;;;;5052123;28;20021;-62
2022/03/03 03:29:36;;;;;;;1.60;0.70;;;;;;;;;;5052688;28;20025;-62
2022/03/03 03:32:02;;;;;;;2.53;0.88;;;;;;;;;;5041746;28;20069;-62
2022/03/03 03:34:28;;;;;;;1.35;0.50;;;;;;;;;;5032387;28;20469;-62
2022/03/03 03:36:54;;;;;;;7.70;2.25;;;;;;;;;;5032292;28;20036;-62
2022/03/03 03:39:20;;;;;;;1.48;0.60;;;;;;;;;;5032629;28;20030;-62
2022/03/03 03:41:47;;;;;;;3.40;0.68;;;;;;;;;;5032428;28;20022;-62
2022/03/03 03:44:14;;;;;;;1.30;0.50;;;;;;;;;;5032113;28;20171;-62
2022/03/03 03:46:40;;;;;;;2.50;0.80;;;;;;;;;;5032408;28;20033;-62
2022/03/03 03:49:06;;;;;;;1.52;0.45;;;;;;;;;;5052132;28;20036;-62
2022/03/03 03:51:33;;;;;;;3.10;0.70;;;;;;;;;;5051610;28;20543;-62
2022/03/03 03:53:59;;;;;;;3.60;0.47;;;;;;;;;;5052487;28;20492;-62
2022/03/03 03:56:26;;;;;;;1.75;0.52;;;;;;;;;;5052066;28;20041;-62
2022/03/03 03:58:52;;;;;;;3.15;0.63;;;;;;;;;;5052257;28;20489;-62
2022/03/03 04:01:18;;;;;;;1.75;0.30;;;;;;;;;;5041707;28;20036;-62
2022/03/03 04:03:44;;;;;;;1.38;0.40;;;;;;;;;;5032242;28;20474;-62
2022/03/03 04:06:10;;;;;;;1.65;0.50;;;;;;;;;;5040379;28;20052;-62
2022/03/03 04:08:36;;;;;;;2.35;0.40;;;;;;;;;;5050554;28;20053;-62
2022/03/03 04:11:03;;;;;;;0.80;0.40;;;;;;;;;;5052055;28;20056;-62
2022/03/03 04:13:30;;;;;;;0.30;0.30;;;;;;;;;;5051581;28;20073;-62
2022/03/03 04:15:56;;;;;;;2.03;0.30;;;;;;;;;;5052126;28;20102;-62
2022/03/03 04:18:22;;;;;;;2.65;0.47;;;;;;;;;;5050204;28;20068;-62
2022/03/03 04:20:48;;;;;;;1.98;0.30;;;;;;;;;;5048444;28;20513;-62
2022/03/03 04:23:19;;;;;;;0.85;0.40;;;;;;;;;;5041638;28;20061;-62
2022/03/03 04:25:45;;;;;;;0.30;0.30;;;;;;;;;;5042697;28;20059;-62
2022/03/03 04:28:11;;;;;;;1.58;0.30;;;;;;;;;;5041268;28;20051;-62
2022/03/03 04:30:37;;;;;;;0.20;0.20;;;;;;;;;;5041215;28;20028;-62
2022/03/03 04:33:03;;;;;;;0.65;0.30;;;;;;;;;;5043001;28;20032;-62
2022/03/03 04:35:30;;;;;;;0.60;0.40;;;;;;;;;;5044474;28;20033;-62
2022/03/03 04:37:56;;;;;;;0.30;0.30;;;;;;;;;;5055096;28;20032;-62
2022/03/03 04:40:22;;;;;;;0.30;0.30;;;;;;;;;;5052260;28;20382;-62
2022/03/03 04:42:51;;;;;;;0.65;0.22;;;;;;;;;;5040513;28;20029;-62
2022/03/03 04:45:18;;;;;;;0.65;0.30;;;;;;;;;;5044934;28;20033;-62
2022/03/03 04:47:44;;;;;;;3.47;0.40;;;;;;;;;;5047040;28;20018;-62
2022/03/03 04:50:11;;;;;;;2.88;0.50;;;;;;;;;;5045754;28;20052;-62
2022/03/03 04:52:37;;;;;;;3.40;0.63;;;;;;;;;;5049293;28;20439;-62
2022/03/03 04:55:04;;;;;;;6.80;0.90;;;;;;;;;;5047445;28;20565;-62
2022/03/03 04:57:31;;;;;;;4.57;1.05;;;;;;;;;;5042841;28;20033;-62
2022/03/03 04:59:57;;;;;;;5.00;1.60;;;;;;;;;;5061339;28;20025;-62
2022/03/03 05:02:24;;;;;;;9.25;1.48;;;;;;;;;;5038703;28;20033;-62
2022/03/03 05:04:51;;;;;;;9.60;1.85;;;;;;;;;;5057341;28;20438;-62
2022/03/03 05:07:18;;;;;;;9.57;1.73;;;;;;;;;;5050783;28;20052;-62
2022/03/03 05:09:44;;;;;;;9.98;1.55;;;;;;;;;;5045885;28;20565;-62
2022/03/03 05:12:10;;;;;;;12.73;2.05;;;;;;;;;;5051599;28;20051;-62
2022/03/03 05:14:37;;;;;;;12.07;2.13;;;;;;;;;;5045406;28;20032;-62
2022/03/03 05:17:03;;;;;;;6.80;1.77;;;;;;;;;;5043187;28;20481;-62
2022/03/03 05:19:29;;;;;;;10.57;2.10;;;;;;;;;;5042402;28;20112;-62
2022/03/03 05:21:55;;;;;;;12.52;2.15;;;;;;;;;;5045716;28;20409;-62
2022/03/03 05:24:21;;;;;;;8.57;2.00;;;;;;;;;;5045870;28;20029;-62
2022/03/03 05:26:47;;;;;;;14.57;2.72;;;;;;;;;;5045244;28;20105;-62
2022/03/03 05:29:14;;;;;;;15.02;2.55;;;;;;;;;;5042831;28;20017;-62
2022/03/03 05:31:41;;;;;;;10.40;1.88;;;;;;;;;;5044413;28;20061;-62
2022/03/03 05:34:07;;;;;;;21.58;2.33;;;;;;;;;;5042324;28;20037;-62
2022/03/03 05:36:35;;;;;;;17.02;2.72;;;;;;;;;;5037063;28;20136;-62
2022/03/03 05:39:01;;;;;;;13.70;2.30;;;;;;;;;;5045928;28;20109;-62
2022/03/03 05:41:28;;;;;;;14.65;2.38;;;;;;;;;;5045500;28;20074;-62
2022/03/03 05:43:54;;;;;;;22.98;2.33;;;;;;;;;;5035100;28;20103;-62
2022/03/03 05:46:20;;;;;;;13.52;2.30;;;;;;;;;;5034577;28;20026;-62
2022/03/03 05:48:48;;;;;;;14.45;2.78;;;;;;;;;;5044962;28;20021;-62
2022/03/03 05:51:14;;;;;;;16.17;2.92;;;;;;;;;;5041948;28;20032;-62
2022/03/03 05:53:40;;;;;;;15.75;2.97;;;;;;;;;;5037746;28;20029;-62
2022/03/03 05:56:09;;;;;;;15.00;2.33;;;;;;;;;;5034654;28;20031;-62
2022/03/03 05:58:46;;;;;;;13.93;2.13;;;;;;;;;;5068385;28;20388;-62
2022/03/03 06:01:13;;;;;;;23.10;4.57;;;;;;;;;;5065208;28;20017;-62
2022/03/03 06:03:40;;;;;;;18.13;2.90;;;;;;;;;;5045520;28;20041;-62
2022/03/03 06:06:12;;;;;;;16.40;2.70;;;;;;;;;;5044187;28;20021;-62
2022/03/03 06:08:42;;;;;;;14.23;2.80;;;;;;;;;;5036750;28;20022;-62
2022/03/03 06:11:15;;;;;;;11.02;2.05;;;;;;;;;;5045411;28;20028;-62
2022/03/03 06:13:46;;;;;;;14.55;2.35;;;;;;;;;;5043631;28;20068;-62
2022/03/03 06:16:16;;;;;;;12.20;2.25;;;;;;;;;;5048452;28;20037;-62
2022/03/03 06:18:45;;;;;;;17.02;2.75;;;;;;;;;;5033155;28;20505;-62
2022/03/03 06:21:11;;;;;;;14.45;2.53;;;;;;;;;;5040420;28;20021;-62
2022/03/03 06:23:37;;;;;;;16.38;2.58;;;;;;;;;;5040755;28;20446;-62
2022/03/03 06:26:04;;;;;;;13.52;2.10;;;;;;;;;;5039273;28;20033;-62
2022/03/03 06:28:31;;;;;;;15.10;2.90;;;;;;;;;;5035820;28;20041;-62
2022/03/03 06:30:57;;;;;;;14.38;2.80;;;;;;;;;;5045264;28;20493;-63
2022/03/03 06:33:25;;;;;;;15.05;2.15;;;;;;;;;;5051591;28;20511;-63
2022/03/03 06:35:51;;;;;;;11.85;2.38;;;;;;;;;;5042917;28;20038;-63
2022/03/03 06:38:18;;;;;;;13.27;2.60;;;;;;;;;;5040004;28;20535;-62
2022/03/03 06:40:44;;;;;;;14.75;2.85;;;;;;;;;;5037835;28;20481;-63
2022/03/03 06:43:10;;;;;;;12.43;2.85;;;;;;;;;;5043189;28;20464;-63
2022/03/03 06:45:36;;;;;;;12.65;2.53;;;;;;;;;;5044046;28;20103;-63
2022/03/03 06:48:04;;;;;;;15.15;3.08;;;;;;;;;;5046498;28;20021;-62
2022/03/03 06:50:30;;;;;;;13.32;2.67;;;;;;;;;;5052524;28;20495;-63
2022/03/03 06:52:57;;;;;;;15.25;2.30;;;;;;;;;;5052615;28;20021;-63
2022/03/03 06:55:24;;;;;;;9.77;2.05;;;;;;;;;;5047724;28;20040;-63
2022/03/03 06:57:52;;;;;;;16.77;2.90;;;;;;;;;;5039801;28;20060;-63
2022/03/03 07:00:20;;;;;;;17.60;2.63;;;;;;;;;;5045109;28;20065;-63
2022/03/03 07:02:47;;;;;;;13.65;2.40;;;;;;;;;;5046109;28;20078;-63
2022/03/03 07:05:14;;;;;;;13.32;2.58;;;;;;;;;;5046285;28;20030;-62
2022/03/03 07:07:42;;;;;;;14.35;2.00;;;;;;;;;;5039042;28;20057;-62
2022/03/03 07:10:08;;;;;;;6.22;1.65;;;;;;;;;;5047925;28;20040;-62
2022/03/03 07:12:35;;;;;;;18.15;2.78;;;;;;;;;;5038290;28;20060;-62
2022/03/03 07:15:02;;;;;;;14.07;2.95;;;;;;;;;;5033178;28;20026;-62
2022/03/03 07:17:47;;;;;;;9.45;2.10;;;;;;;;;;5032773;28;20401;-62
2022/03/03 07:20:39;;;;;;;11.18;2.30;;;;;;;;;;5038598;28;20465;-62
2022/03/03 07:23:08;;;;;;;14.63;3.00;;;;;;;;;;5033437;28;20053;-65
2022/03/03 07:25:39;;;;;;;17.52;2.78;;;;;;;;;;5039173;28;20117;-63
2022/03/03 07:28:09;;;;;;;14.77;3.47;;;;;;;;;;5035834;28;20017;-63
2022/03/03 07:30:40;;;;;;;17.25;2.70;;;;;;;;;;5041769;28;20135;-63
2022/03/03 07:33:07;;;;;;;12.73;3.25;;;;;;;;;;5037784;28;20032;-62
2022/03/03 07:35:34;;;;;;;10.93;2.97;;;;;;;;;;5048275;28;20043;-62
2022/03/03 07:38:05;;;;;;;14.45;3.28;;;;;;;;;;5040735;28;20037;-63
2022/03/03 07:40:32;;;;;;;13.27;2.95;;;;;;;;;;5032478;28;20404;-63
2022/03/03 07:42:59;;;;;;;10.05;2.42;;;;;;;;;;5032153;28;20105;-62
2022/03/03 07:45:26;;;;;;;17.55;3.15;;;;;;;;;;5031014;28;20535;-62
2022/03/03 07:47:55;;;;;;;17.92;3.25;;;;;;;;;;5041860;28;20068;-63
2022/03/03 07:50:21;;;;;;;14.77;2.97;;;;;;;;;;5035931;28;20025;-63
2022/03/03 07:52:48;;;;;;;19.17;4.03;;;;;;;;;;5042105;28;20044;-63
2022/03/03 07:55:15;;;;;;;17.08;3.72;;;;;;;;;;5047871;28;20021;-63
2022/03/03 07:57:44;;;;;;;17.67;3.03;;;;;;;;;;5042227;28;20393;-63
2022/03/03 08:00:13;;;;;;;12.93;3.28;;;;;;;;;;5050800;28;20024;-63
2022/03/03 08:02:40;;;;;;;11.77;2.95;;;;;;;;;;5041704;28;20050;-63
2022/03/03 08:05:06;;;;;;;16.50;3.28;;;;;;;;;;5031968;28;20029;-63
2022/03/03 08:07:45;;;;;;;13.13;2.78;;;;;;;;;;5043973;28;20371;-63
2022/03/03 08:10:13;;;;;;;12.60;2.92;;;;;;;;;;5050846;28;20025;-63
2022/03/03 08:12:39;;;;;;;14.07;2.92;;;;;;;;;;5050822;28;20049;-63
2022/03/03 08:15:06;;;;;;;12.65;3.22;;;;;;;;;;5051738;28;20036;-63
2022/03/03 08:17:35;;;;;;;15.60;3.47;;;;;;;;;;5042057;28;20474;-63
2022/03/03 08:20:03;;;;;;;15.85;3.00;;;;;;;;;;5047148;28;20029;-63
2022/03/03 08:22:30;;;;;;;19.38;3.40;;;;;;;;;;5048280;28;20033;-63
2022/03/03 08:24:57;;;;;;;17.05;3.58;;;;;;;;;;5031955;28;20079;-63
2022/03/03 08:27:25;;;;;;;14.68;3.83;;;;;;;;;;5042112;28;20031;-63
2022/03/03 08:29:51;;;;;;;23.02;4.63;;;;;;;;;;5036337;28;20446;-63
2022/03/03 08:32:19;;;;;;;17.98;3.85;;;;;;;;;;5050654;28;20044;-63
2022/03/03 08:34:56;;;;;;;21.00;3.85;;;;;;;;;;5051703;28;20480;-63
2022/03/03 08:37:30;;;;;;;19.85;5.47;;;;;;;;;;5036100;28;20041;-63
2022/03/03 08:39:59;;;;;;;22.05;4.93;;;;;;;;;;5035321;28;20037;-63
2022/03/03 08:42:28;;;;;;;13.98;4.72;;;;;;;;;;5055146;28;20040;-63
2022/03/03 08:44:58;;;;;;;20.10;3.97;;;;;;;;;;5055133;28;20475;-63
2022/03/03 08:47:25;;;;;;;21.90;3.75;;;;;;;;;;5058576;28;20021;-63
2022/03/03 08:49:57;;;;;;;20.13;4.07;;;;;;;;;;5066293;28;20016;-63
2022/03/03 08:52:23;;;;;;;30.48;4.15;;;;;;;;;;5052706;28;20029;-63
2022/03/03 08:54:50;;;;;;;15.25;3.35;;;;;;;;;;5046924;28;20489;-63
2022/03/03 08:57:16;;;;;;;27.60;3.78;;;;;;;;;;5042805;28;20017;-63
2022/03/03 08:59:42;;;;;;;20.50;3.60;;;;;;;;;;5053970;28;20032;-63
2022/03/03 09:02:10;;;;;;;31.65;4.88;;;;;;;;;;5049575;28;20029;-62
2022/03/03 09:04:36;;;;;;;19.67;3.78;;;;;;;;;;5036141;28;20104;-63
2022/03/03 09:07:02;;;;;;;28.42;4.43;;;;;;;;;;5040400;28;20025;-63
2022/03/03 09:09:29;;;;;;;15.02;3.63;;;;;;;;;;5043481;28;20017;-63
2022/03/03 09:11:55;;;;;;;28.20;5.32;;;;;;;;;;5048749;28;20044;-63
2022/03/03 09:14:21;;;;;;;29.13;5.93;;;;;;;;;;5054406;28;20094;-63
2022/03/03 09:16:47;;;;;;;29.73;7.57;;;;;;;;;;5049582;28;20036;-63
2022/03/03 09:19:13;;;;;;;36.22;7.05;;;;;;;;;;5052700;28;20036;-63
2022/03/03 09:21:40;;;;;;;35.20;6.68;;;;;;;;;;5039899;28;20063;-63
2022/03/03 09:24:06;;;;;;;33.75;5.55;;;;;;;;;;5046579;28;20428;-63
2022/03/03 09:26:33;;;;;;;26.15;5.30;;;;;;;;;;5046784;28;20029;-63
2022/03/03 09:28:59;;;;;;;22.83;3.95;;;;;;;;;;5052285;28;20488;-63
2022/03/03 09:31:25;;;;;;;22.38;4.88;;;;;;;;;;5058113;28;20026;-63
2022/03/03 09:33:51;;;;;;;24.02;4.88;;;;;;;;;;5063241;28;20552;-63
2022/03/03 09:36:18;;;;;;;22.85;5.63;;;;;;;;;;5044373;28;20025;-63
2022/03/03 09:38:44;;;;;;;21.67;3.72;;;;;;;;;;5042646;28;20112;-63
2022/03/03 09:41:11;;;;;;;31.88;5.13;;;;;;;;;;5055662;28;20078;-63
2022/03/03 09:43:37;;;;;;;34.85;6.55;;;;;;;;;;5046389;28;20029;-63
2022/03/03 09:46:03;;;;;;;18.38;4.60;;;;;;;;;;5061904;28;20025;-63
2022/03/03 09:48:29;;;;;;;22.77;3.72;;;;;;;;;;5043072;28;20669;-63
2022/03/03 09:50:55;;;;;;;32.47;4.90;;;;;;;;;;5054903;28;20477;-63
2022/03/03 09:53:22;;;;;;;29.05;5.90;;;;;;;;;;5040969;28;20032;-63
2022/03/03 09:55:49;;;;;;;24.55;5.78;;;;;;;;;;5039564;28;20106;-63
2022/03/03 09:58:16;;;;;;;25.00;5.55;;;;;;;;;;5051281;28;20028;-63
2022/03/03 10:00:42;;;;;;;23.05;5.85;;;;;;;;;;5040984;28;20056;-63
2022/03/03 10:03:10;;;;;;;34.13;6.63;;;;;;;;;;5050333;28;20073;-63
2022/03/03 10:05:45;;;;;;;22.08;5.63;;;;;;;;;;5040037;28;20092;-63
2022/03/03 10:08:12;;;;;;;27.20;6.03;;;;;;;;;;5032854;28;20126;-63
2022/03/03 10:10:43;;;;;;;29.27;6.07;;;;;;;;;;5032496;28;20102;-63
2022/03/03 10:13:10;;;;;;;30.27;5.63;;;;;;;;;;5033031;28;20067;-63
2022/03/03 10:15:37;;;;;;;32.53;5.82;;;;;;;;;;5033996;28;20060;-63
2022/03/03 10:18:05;;;;;;;38.67;7.28;;;;;;;;;;5034281;28;20084;-63
2022/03/03 10:20:36;;;;;;;46.70;7.53;;;;;;;;;;5033675;28;20448;-63
2022/03/03 10:23:06;;;;;;;46.45;7.47;;;;;;;;;;5033604;28;20033;-63
2022/03/03 10:25:36;;;;;;;34.88;5.13;;;;;;;;;;5033652;28;20036;-63
2022/03/03 10:28:21;;;;;;;32.08;5.82;;;;;;;;;;5042079;28;20028;-63
2022/03/03 10:31:01;;;;;;;37.22;6.70;;;;;;;;;;5053833;28;20484;-63
2022/03/03 10:33:29;;;;;;;31.23;5.82;;;;;;;;;;5053536;28;20105;-63
2022/03/03 10:36:32;;;;;;;50.08;6.60;;;;;;;;;;5053901;28;20439;-63
2022/03/03 10:39:00;;;;;;;44.88;8.55;;;;;;;;;;5053446;28;20025;-63
2022/03/03 10:41:33;;;;;;;46.05;5.38;;;;;;;;;;5053505;28;20037;-63
2022/03/03 10:44:01;;;;;;;30.83;5.60;;;;;;;;;;5053459;28;20103;-63
2022/03/03 10:46:27;;;;;;;43.72;7.40;;;;;;;;;;5053208;28;20493;-63
2022/03/03 10:48:54;;;;;;;53.67;6.90;;;;;;;;;;5053495;28;20033;-63
2022/03/03 10:51:24;;;;;;;35.63;6.95;;;;;;;;;;5053303;28;20056;-63
2022/03/03 10:53:50;;;;;;;42.20;6.40;;;;;;;;;;5052186;28;20040;-63
2022/03/03 10:56:17;;;;;;;36.95;6.07;;;;;;;;;;5045223;28;20477;-63
2022/03/03 10:58:47;;;;;;;45.25;8.27;;;;;;;;;;5040871;28;20086;-63
2022/03/03 11:01:14;;;;;;;37.95;6.57;;;;;;;;;;5033207;28;20045;-63
2022/03/03 11:03:40;;;;;;;41.35;6.43;;;;;;;;;;5033069;28;20031;-63
2022/03/03 11:06:07;;;;;;;43.88;6.43;;;;;;;;;;5033346;28;20029;-63
2022/03/03 11:08:34;;;;;;;46.67;5.95;;;;;;;;;;5032949;28;20033;-63
2022/03/03 11:11:01;;;;;;;50.08;7.32;;;;;;;;;;5033084;28;20045;-63
2022/03/03 11:13:27;;;;;;;43.90;7.97;;;;;;;;;;5032661;28;20103;-63
2022/03/03 11:15:54;;;;;;;46.78;7.38;;;;;;;;;;5033221;28;20115;-63
2022/03/03 11:18:21;;;;;;;52.70;8.07;;;;;;;;;;5032853;28;20029;-63
2022/03/03 11:20:47;;;;;;;41.58;7.20;;;;;;;;;;5032586;28;20040;-63
2022/03/03 11:23:13;;;;;;;39.90;6.45;;;;;;;;;;5036929;28;20356;-63
2022/03/03 11:25:39;;;;;;;38.45;5.60;;;;;;;;;;5035849;28;20091;-62
2022/03/03 11:28:07;;;;;;;41.38;6.95;;;;;;;;;;5046620;28;20025;-62
2022/03/03 11:30:34;;;;;;;46.63;7.40;;;;;;;;;;5042857;28;20136;-62
2022/03/03 11:33:18;;;;;;;39.63;6.05;;;;;;;;;;5041894;28;20063;-62
2022/03/03 11:35:51;;;;;;;48.28;6.53;;;;;;;;;;5040244;28;20025;-62
2022/03/03 11:38:18;;;;;;;45.22;7.45;;;;;;;;;;5037425;28;20026;-62
2022/03/03 11:40:53;;;;;;;33.35;6.78;;;;;;;;;;5041489;28;20099;-62
2022/03/03 11:43:19;;;;;;;39.78;7.65;;;;;;;;;;5040402;28;20029;-63
2022/03/03 11:45:49;;;;;;;36.85;5.85;;;;;;;;;;5043856;28;20462;-62
2022/03/03 11:48:16;;;;;;;48.53;8.15;;;;;;;;;;5031753;28;20029;-63
2022/03/03 11:50:43;;;;;;;47.20;8.30;;;;;;;;;;5030834;28;20148;-62
2022/03/03 11:53:09;;;;;;;55.80;7.93;;;;;;;;;;5031470;28;20036;-62
2022/03/03 11:55:37;;;;;;;36.33;5.40;;;;;;;;;;5031254;28;20037;-62
2022/03/03 11:58:06;;;;;;;36.80;5.93;;;;;;;;;;5040345;28;20043;-63
2022/03/03 12:00:34;;;;;;;49.65;6.20;;;;;;;;;;5047115;28;20382;-62
2022/03/03 12:03:04;;;;;;;35.30;5.65;;;;;;;;;;5047068;28;20087;-62
2022/03/03 12:05:35;;;;;;;37.88;5.65;;;;;;;;;;5035839;28;20030;-62
2022/03/03 12:08:04;;;;;;;45.50;7.13;;;;;;;;;;5040398;28;20024;-63
2022/03/03 12:10:31;;;;;;;34.90;5.82;;;;;;;;;;5032730;28;20494;-62
2022/03/03 12:13:16;;;;;;;37.83;5.78;;;;;;;;;;5031930;28;20421;-62
2022/03/03 12:16:04;;;;;;;40.83;5.68;;;;;;;;;;5044668;28;20064;-62
2022/03/03 12:18:36;;;;;;;37.10;5.68;;;;;;;;;;5031327;28;20029;-62
2022/03/03 12:21:34;;;;;;;30.95;4.50;;;;;;;;;;5040657;28;20100;-62
2022/03/03 12:24:20;;;;;;;41.75;9.32;;;;;;;;;;5040774;28;20041;-62
2022/03/03 12:29:35;;;;;;;28.33;4.55;;;;;;;;;;5050358;28;20037;-62
2022/03/03 12:32:24;;;;;;;34.58;5.63;;;;;;;;;;5047165;28;20028;-62
2022/03/03 12:34:51;;;;;;;26.58;5.15;;;;;;;;;;5022415;28;20041;-62
2022/03/03 12:37:17;;;;;;;38.20;5.72;;;;;;;;;;5044580;28;20029;-62
2022/03/03 12:39:49;;;;;;;34.53;4.88;;;;;;;;;;5035095;28;20140;-62
2022/03/03 12:42:19;;;;;;;32.20;4.53;;;;;;;;;;5034589;28;20045;-63
2022/03/03 12:44:55;;;;;;;30.75;5.10;;;;;;;;;;5033246;28;20034;-63
2022/03/03 12:47:35;;;;;;;31.70;6.15;;;;;;;;;;5032358;28;20033;-63
2022/03/03 12:50:07;;;;;;;31.73;5.00;;;;;;;;;;5029362;28;20037;-63
2022/03/03 12:52:34;;;;;;;26.60;3.83;;;;;;;;;;5034378;28;20056;-63
2022/03/03 12:55:01;;;;;;;27.70;3.97;;;;;;;;;;5029261;28;20030;-63
2022/03/03 12:57:31;;;;;;;30.98;3.65;;;;;;;;;;5029718;28;20036;-63
2022/03/03 12:59:58;;;;;;;28.77;3.72;;;;;;;;;;5030875;28;20048;-63
2022/03/03 13:02:24;;;;;;;13.85;3.22;;;;;;;;;;5031328;28;20037;-63
2022/03/03 13:04:51;;;;;;;20.13;3.42;;;;;;;;;;5031312;28;20057;-63
2022/03/03 13:07:17;;;;;;;20.73;3.88;;;;;;;;;;5031770;28;20119;-63
2022/03/03 13:09:56;;;;;;;25.23;4.55;;;;;;;;;;5031679;28;20040;-63
2022/03/03 13:12:23;;;;;;;28.85;4.70;;;;;;;;;;5031485;28;20041;-63
2022/03/03 13:14:59;;;;;;;31.75;5.60;;;;;;;;;;5031495;28;20053;-63
2022/03/03 13:17:26;;;;;;;28.02;4.75;;;;;;;;;;5032032;28;20036;-63
2022/03/03 13:19:52;;;;;;;30.80;4.57;;;;;;;;;;5035393;28;20477;-63
2022/03/03 13:22:18;;;;;;;25.65;5.07;;;;;;;;;;5035138;28;20371;-63
2022/03/03 13:24:44;;;;;;;29.50;5.38;;;;;;;;;;5035093;28;20120;-63
2022/03/03 13:27:12;;;;;;;26.77;4.72;;;;;;;;;;5035840;28;20486;-63
2022/03/03 13:29:39;;;;;;;30.42;4.18;;;;;;;;;;5054206;28;20028;-63
2022/03/03 13:32:12;;;;;;;39.17;5.85;;;;;;;;;;5054505;28;20476;-63
2022/03/03 13:34:40;;;;;;;25.25;5.13;;;;;;;;;;5054936;28;20516;-63
2022/03/03 13:37:14;;;;;;;34.53;4.47;;;;;;;;;;5054523;28;20040;-62
2022/03/03 13:39:40;;;;;;;34.13;5.15;;;;;;;;;;5054997;28;20115;-63
2022/03/03 13:42:10;;;;;;;26.48;6.25;;;;;;;;;;5054560;28;20021;-63
2022/03/03 13:44:37;;;;;;;36.00;4.78;;;;;;;;;;5054884;28;20389;-63
2022/03/03 13:47:05;;;;;;;30.52;4.38;;;;;;;;;;5054093;28;20509;-63
2022/03/03 13:49:32;;;;;;;35.47;4.85;;;;;;;;;;5054667;28;20063;-63
2022/03/03 13:52:07;;;;;;;30.77;5.03;;;;;;;;;;5054407;28;20565;-63
2022/03/03 13:54:53;;;;;;;27.85;5.40;;;;;;;;;;5054625;28;20079;-63
2022/03/03 13:57:37;;;;;;;23.85;5.57;;;;;;;;;;5054920;28;20030;-63
2022/03/03 14:00:17;;;;;;;35.80;5.03;;;;;;;;;;5054120;28;20033;-63
2022/03/03 14:02:52;;;;;;;29.40;5.25;;;;;;;;;;5054461;28;20082;-63
2022/03/03 14:05:19;;;;;;;27.58;4.78;;;;;;;;;;5054380;28;20031;-63
2022/03/03 14:07:51;;;;;;;32.60;6.30;;;;;;;;;;5054145;28;20512;-63
2022/03/03 14:10:18;;;;;;;25.38;4.00;;;;;;;;;;5054234;28;20115;-63
2022/03/03 14:13:03;;;;;;;28.30;4.10;;;;;;;;;;5054199;28;20534;-63
2022/03/03 14:15:29;;;;;;;24.70;4.15;;;;;;;;;;5053890;28;20029;-63
2022/03/03 14:17:56;;;;;;;21.50;3.50;;;;;;;;;;5054429;28;20492;-63
2022/03/03 14:20:22;;;;;;;22.58;3.75;;;;;;;;;;5053996;28;20099;-63
2022/03/03 14:22:58;;;;;;;27.73;4.90;;;;;;;;;;5053933;28;20100;-63
2022/03/03 14:25:25;;;;;;;31.17;6.78;;;;;;;;;;5054006;28;20485;-63
2022/03/03 14:27:51;;;;;;;26.10;4.45;;;;;;;;;;5053612;28;20017;-63
2022/03/03 14:30:17;;;;;;;21.10;4.10;;;;;;;;;;5053472;28;20363;-63
2022/03/03 14:32:43;;;;;;;31.95;4.30;;;;;;;;;;5054036;28;20039;-63
2022/03/03 14:35:10;;;;;;;25.27;4.10;;;;;;;;;;5053526;28;20481;-63
2022/03/03 14:37:37;;;;;;;22.83;4.03;;;;;;;;;;5053641;28;20025;-63
2022/03/03 14:40:04;;;;;;;22.17;3.78;;;;;;;;;;5053574;28;20036;-62
2022/03/03 14:42:30;;;;;;;36.85;4.65;;;;;;;;;;5053574;28;20033;-63
2022/03/03 14:45:00;;;;;;;30.70;5.15;;;;;;;;;;5053113;28;20048;-63